Gemma — ICPC — position and weather

sailwx.info

Track history (hours):
 
Tides and Currents Weather Stations Pressure Air Temp Water Temp Dewpoint Dewpoint Depression Visibility Wind Speed Wind Dir Waves Ship Positions

Gemma

Last reported at 2017-Oct-01 15:25 UTC. Time now 2017-Oct-20 19:33 UTC.
Position N 27°24' W 014°24'.
Warning: this ship's position is 19 days out of date.

Length 330 m; draft 14 m.

Type: Ship. MMSI: 247302100.

Date/timePositionNaut miles runAvg speedWind from/ knotsBaromVisibWave heightAir tempDewpointWater temp
2017-Oct-01 15:25N 27°24' W 014°24'715.0
2017-Oct-01 14:59N 27°29' W 014°19'1215.2
2017-Oct-01 14:13N 27°37' W 014°10'415.0
2017-Oct-01 13:56N 27°40' W 014°06'715.3
2017-Oct-01 13:30N 27°45' W 014°01'815.3
2017-Oct-01 12:57N 27°51' W 013°54'1015.4
2017-Oct-01 12:17N 27°59' W 013°47'515.7
2017-Oct-01 11:59N 28°03' W 013°45'815.7
2017-Oct-01 11:30N 28°10' W 013°41'915.7
2017-Oct-01 10:57N 28°18' W 013°36'715.0
2017-Oct-01 10:28N 28°24' W 013°32'715.0
2017-Oct-01 10:00N 28°30' W 013°28'715.0
2017-Oct-01 09:30N 28°37' W 013°24'815.0
2017-Oct-01 09:00N 28°43' W 013°20'714.8
2017-Oct-01 08:30N 28°50' W 013°16'714.6
2017-Oct-01 08:00N 28°57' W 013°13'714.7
2017-Oct-01 07:30N 29°04' W 013°10'714.4
2017-Oct-01 07:00N 29°10' W 013°07'55614.6
2017-Sep-29 16:46N 35°58' W 005°37'413.8
2017-Sep-29 16:31N 35°59' W 005°33'612.7
2017-Sep-29 16:01N 36°01' W 005°26'510.8
2017-Sep-29 15:31N 36°06' W 005°23'2 3.6
2017-Sep-29 15:00N 36°08' W 005°23'0 0.0
2017-Sep-29 14:30N 36°08' W 005°23'0 0.2
2017-Sep-29 14:00N 36°08' W 005°23'0 0.1
2017-Sep-29 13:30N 36°08' W 005°23'0 0.1
2017-Sep-29 13:00N 36°08' W 005°23'0 0.0
2017-Sep-29 12:30N 36°08' W 005°23'0 0.1
2017-Sep-29 11:57N 36°08' W 005°23'0 0.1
2017-Sep-29 11:30N 36°08' W 005°23'0 0.0
2017-Sep-29 11:00N 36°08' W 005°23'0 0.1
2017-Sep-29 10:30N 36°08' W 005°23'0 0.1
2017-Sep-29 09:57N 36°08' W 005°23'0 0.2
2017-Sep-29 09:30N 36°08' W 005°23'0 0.0
2017-Sep-29 09:00N 36°08' W 005°23'0 0.1
2017-Sep-29 08:30N 36°08' W 005°23'0 0.1
2017-Sep-29 05:45N 36°08' W 005°23'0 0.1
2017-Sep-29 03:57N 36°08' W 005°23'0 0.1
2017-Sep-29 03:27N 36°08' W 005°23'0 0.0
2017-Sep-29 03:00N 36°08' W 005°23'0 0.1
2017-Sep-29 02:30N 36°08' W 005°23'0 0.1
2017-Sep-29 02:00N 36°08' W 005°23'0 0.1
2017-Sep-29 01:30N 36°08' W 005°23'2 3.4
2017-Sep-29 01:00N 36°06' W 005°23'3 6.4
2017-Sep-29 00:30N 36°05' W 005°19'2 3.7
2017-Sep-29 00:00N 36°05' W 005°17'5 9.6
2017-Sep-28 23:31N 36°06' W 005°11'713.9
2017-Sep-28 23:00N 36°07' W 005°03'25414.3
2017-Sep-28 05:17N 36°45' E 000°09'514.7
2017-Sep-28 04:58N 36°46' E 000°15'714.7
2017-Sep-28 04:29N 36°47' E 000°24'714.6
2017-Sep-28 04:01N 36°48' E 000°32'1014.7
2017-Sep-28 03:19N 36°50' E 000°45'2615.3
2017-Sep-28 01:39N 36°54' E 001°16'515.4
2017-Sep-28 01:18N 36°55' E 001°23'57214.6
2017-Sep-26 10:10N 36°54' E 013°18'214.8
2017-Sep-26 10:00N 36°52' E 013°21'714.6
2017-Sep-26 09:30N 36°50' E 013°30'714.5
2017-Sep-26 09:00N 36°48' E 013°38'714.3
2017-Sep-26 08:30N 36°46' E 013°47'713.9
2017-Sep-26 08:00N 36°45' E 013°55'713.9
2017-Sep-26 07:30N 36°43' E 014°04'713.9
2017-Sep-26 07:00N 36°42' E 014°12'714.3
2017-Sep-26 06:31N 36°41' E 014°21'814.9
2017-Sep-26 06:00N 36°39' E 014°30'815.0
2017-Sep-26 05:30N 36°38' E 014°39'815.0
2017-Sep-26 05:00N 36°36' E 014°49'714.9
2017-Sep-26 04:30N 36°34' E 014°57'814.9
2017-Sep-26 04:00N 36°32' E 015°07'611.5
2017-Sep-26 03:30N 36°35' E 015°13'3014.5
2017-Sep-26 01:25N 37°01' E 015°34'1414.5
2017-Sep-26 00:28N 37°12' E 015°44'714.9
2017-Sep-26 00:00N 37°18' E 015°49'815.2
2017-Sep-25 23:30N 37°24' E 015°53'815.8
2017-Sep-25 23:01N 37°31' E 015°58'815.2
2017-Sep-25 22:30N 37°38' E 016°03'815.0
2017-Sep-25 22:00N 37°43' E 016°09'11914.4
2017-Sep-25 13:45N 39°30' E 017°16'415.2
2017-Sep-25 13:29N 39°34' E 017°15'715.2
2017-Sep-25 13:00N 39°41' E 017°14'714.9
2017-Sep-25 12:31N 39°48' E 017°13'714.3
2017-Sep-25 12:00N 39°56' E 017°12'612.1
2017-Sep-25 11:30N 40°02' E 017°11'510.7
2017-Sep-25 11:00N 40°07' E 017°10'510.7
2017-Sep-25 10:30N 40°12' E 017°09'611.9
2017-Sep-25 10:00N 40°18' E 017°08'510.9
2017-Sep-25 09:30N 40°24' E 017°07'3 6.1
2017-Sep-25 09:00N 40°26' E 017°10'3 5.7
2017-Sep-25 08:30N 40°28' E 017°13'1 2.0
2017-Sep-25 07:59N 40°29' E 017°12'0 0.0
2017-Sep-25 07:29N 40°29' E 017°12'0 0.0
2017-Sep-25 06:59N 40°29' E 017°12'0 0.0
2017-Sep-25 06:29N 40°29' E 017°12'0 0.0
2017-Sep-25 05:59N 40°29' E 017°12'0 0.0
2017-Sep-25 05:29N 40°29' E 017°12'0 0.0
2017-Sep-25 04:59N 40°29' E 017°12'0 0.0
2017-Sep-25 04:29N 40°29' E 017°12'0 0.0
2017-Sep-25 03:59N 40°29' E 017°12'0 0.0
2017-Sep-25 03:29N 40°29' E 017°12'0 0.0
2017-Sep-25 02:59N 40°29' E 017°12'0 0.0
2017-Sep-25 02:29N 40°29' E 017°12'0 0.0
2017-Sep-25 01:59N 40°29' E 017°12'0 0.0
2017-Sep-25 01:29N 40°29' E 017°12'0 0.0
2017-Sep-25 00:59N 40°29' E 017°12'0 0.0
2017-Sep-25 00:29N 40°29' E 017°12'0 0.0
2017-Sep-24 23:59N 40°29' E 017°12'0 0.0
2017-Sep-24 23:29N 40°29' E 017°12'0 0.0
2017-Sep-24 22:59N 40°29' E 017°12'0 0.0
2017-Sep-24 22:29N 40°29' E 017°12'0 0.0
2017-Sep-24 21:59N 40°29' E 017°12'0 0.0
2017-Sep-24 21:29N 40°29' E 017°12'0 0.0
2017-Sep-24 20:59N 40°29' E 017°12'0 0.0
2017-Sep-24 20:29N 40°29' E 017°12'0 0.0
2017-Sep-24 19:59N 40°29' E 017°12'0 0.0
2017-Sep-24 19:29N 40°29' E 017°12'0 0.0
2017-Sep-24 18:59N 40°29' E 017°12'0 0.0
2017-Sep-24 18:29N 40°29' E 017°12'0 0.0
2017-Sep-24 17:59N 40°29' E 017°12'0 0.0
2017-Sep-24 17:29N 40°29' E 017°12'0 0.0
2017-Sep-24 16:59N 40°29' E 017°12'0 0.0
2017-Sep-24 16:29N 40°29' E 017°12'0 0.0
2017-Sep-24 15:59N 40°29' E 017°12'0 0.0
2017-Sep-24 15:29N 40°29' E 017°12'0 0.0
2017-Sep-24 14:59N 40°29' E 017°12'0 0.0
2017-Sep-24 14:29N 40°29' E 017°12'0 0.0
2017-Sep-24 13:59N 40°29' E 017°12'0 0.0
2017-Sep-24 13:29N 40°29' E 017°12'0 0.0
2017-Sep-24 12:59N 40°29' E 017°12'0 0.0
2017-Sep-24 12:29N 40°29' E 017°12'0 0.0
2017-Sep-24 11:59N 40°29' E 017°12'0 0.0
2017-Sep-24 11:29N 40°29' E 017°12'0 0.0
2017-Sep-24 10:59N 40°29' E 017°12'0 0.0
2017-Sep-24 10:29N 40°29' E 017°12'0 0.0
2017-Sep-24 09:59N 40°29' E 017°12'0 0.0
2017-Sep-24 09:29N 40°29' E 017°12'0 0.0
2017-Sep-24 08:59N 40°29' E 017°12'0 0.0
2017-Sep-24 08:29N 40°29' E 017°12'0 0.0
2017-Sep-24 07:59N 40°29' E 017°12'0 0.0
2017-Sep-24 07:29N 40°29' E 017°12'0 0.0
2017-Sep-24 06:59N 40°29' E 017°12'0 0.0
2017-Sep-24 06:29N 40°29' E 017°12'0 0.0
2017-Sep-24 05:59N 40°29' E 017°12'0 0.0
2017-Sep-24 05:29N 40°29' E 017°12'0 0.0
2017-Sep-24 04:59N 40°29' E 017°12'0 0.0
2017-Sep-24 04:29N 40°29' E 017°12'0 0.0
2017-Sep-24 03:59N 40°29' E 017°12'0 0.0
2017-Sep-24 03:29N 40°29' E 017°12'0 0.0
2017-Sep-24 02:59N 40°29' E 017°12'0 0.0
2017-Sep-24 02:29N 40°29' E 017°12'0 0.0
2017-Sep-24 01:59N 40°29' E 017°12'0 0.0
2017-Sep-24 01:29N 40°29' E 017°12'0 0.0
2017-Sep-24 00:59N 40°29' E 017°12'0 0.0
2017-Sep-24 00:26N 40°29' E 017°12'0 0.0
2017-Sep-23 23:59N 40°29' E 017°12'0 0.0
2017-Sep-23 23:29N 40°29' E 017°12'0 0.0
2017-Sep-23 22:59N 40°29' E 017°12'0 0.0
2017-Sep-23 22:29N 40°29' E 017°12'0 0.0
2017-Sep-23 21:59N 40°29' E 017°12'0 0.0
2017-Sep-23 21:29N 40°29' E 017°12'0 0.0
2017-Sep-23 20:59N 40°29' E 017°12'0 0.0
2017-Sep-23 20:29N 40°29' E 017°12'0 0.0
2017-Sep-23 19:59N 40°29' E 017°12'0 0.0
2017-Sep-22 01:59N 40°29' E 017°12'0 0.0
2017-Sep-22 01:29N 40°29' E 017°12'0 0.0
2017-Sep-22 00:59N 40°29' E 017°12'0 0.0
2017-Sep-22 00:29N 40°29' E 017°12'0 0.0
2017-Sep-21 23:59N 40°29' E 017°12'0 0.0
2017-Sep-21 23:29N 40°29' E 017°12'0 0.0
2017-Sep-21 22:59N 40°29' E 017°12'0 0.0
2017-Sep-21 22:29N 40°29' E 017°12'0 0.0
2017-Sep-21 21:59N 40°29' E 017°12'0 0.0
2017-Sep-21 21:29N 40°29' E 017°12'0 0.0
2017-Sep-21 20:59N 40°29' E 017°12'0 0.0
2017-Sep-21 20:29N 40°29' E 017°12'0 0.0
2017-Sep-21 19:59N 40°29' E 017°12'0 0.0
2017-Sep-21 19:29N 40°29' E 017°12'0 0.0
2017-Sep-21 18:59N 40°29' E 017°12'0 0.0
2017-Sep-21 18:29N 40°29' E 017°12'0 0.0
2017-Sep-21 17:59N 40°29' E 017°12'0 0.0
2017-Sep-21 17:29N 40°29' E 017°12'0 0.0
2017-Sep-21 16:59N 40°29' E 017°12'0 0.0
2017-Sep-21 16:29N 40°29' E 017°12'0 0.0
2017-Sep-21 15:59N 40°29' E 017°12'0 0.0
2017-Sep-21 15:29N 40°29' E 017°12'  
Track history (hours):
 
Tides and Currents Weather Stations Pressure Air Temp Water Temp Dewpoint Dewpoint Depression Visibility Wind Speed Wind Dir Waves Ship Positions

Gemma

Last reported at 2017-Oct-01 15:25 UTC. Time now 2017-Oct-20 19:33 UTC.
Position N 27°24' W 014°24'.
Warning: this ship's position is 19 days out of date.

Length 330 m; draft 14 m.

Type: Ship. MMSI: 247302100.

Date/timePositionNaut miles runAvg speedWind from/ knotsBaromVisibWave heightAir tempDewpointWater temp
2017-Oct-01 15:25N 27°24' W 014°24'715.0
2017-Oct-01 14:59N 27°29' W 014°19'1215.2
2017-Oct-01 14:13N 27°37' W 014°10'415.0
2017-Oct-01 13:56N 27°40' W 014°06'715.3
2017-Oct-01 13:30N 27°45' W 014°01'815.3
2017-Oct-01 12:57N 27°51' W 013°54'1015.4
2017-Oct-01 12:17N 27°59' W 013°47'515.7
2017-Oct-01 11:59N 28°03' W 013°45'815.7
2017-Oct-01 11:30N 28°10' W 013°41'915.7
2017-Oct-01 10:57N 28°18' W 013°36'715.0
2017-Oct-01 10:28N 28°24' W 013°32'715.0
2017-Oct-01 10:00N 28°30' W 013°28'715.0
2017-Oct-01 09:30N 28°37' W 013°24'815.0
2017-Oct-01 09:00N 28°43' W 013°20'714.8
2017-Oct-01 08:30N 28°50' W 013°16'714.6
2017-Oct-01 08:00N 28°57' W 013°13'714.7
2017-Oct-01 07:30N 29°04' W 013°10'714.4
2017-Oct-01 07:00N 29°10' W 013°07'55614.6
2017-Sep-29 16:46N 35°58' W 005°37'413.8
2017-Sep-29 16:31N 35°59' W 005°33'612.7
2017-Sep-29 16:01N 36°01' W 005°26'510.8
2017-Sep-29 15:31N 36°06' W 005°23'2 3.6
2017-Sep-29 15:00N 36°08' W 005°23'0 0.0
2017-Sep-29 14:30N 36°08' W 005°23'0 0.2
2017-Sep-29 14:00N 36°08' W 005°23'0 0.1
2017-Sep-29 13:30N 36°08' W 005°23'0 0.1
2017-Sep-29 13:00N 36°08' W 005°23'0 0.0
2017-Sep-29 12:30N 36°08' W 005°23'0 0.1
2017-Sep-29 11:57N 36°08' W 005°23'0 0.1
2017-Sep-29 11:30N 36°08' W 005°23'0 0.0
2017-Sep-29 11:00N 36°08' W 005°23'0 0.1
2017-Sep-29 10:30N 36°08' W 005°23'0 0.1
2017-Sep-29 09:57N 36°08' W 005°23'0 0.2
2017-Sep-29 09:30N 36°08' W 005°23'0 0.0
2017-Sep-29 09:00N 36°08' W 005°23'0 0.1
2017-Sep-29 08:30N 36°08' W 005°23'0 0.1
2017-Sep-29 05:45N 36°08' W 005°23'0 0.1
2017-Sep-29 03:57N 36°08' W 005°23'0 0.1
2017-Sep-29 03:27N 36°08' W 005°23'0 0.0
2017-Sep-29 03:00N 36°08' W 005°23'0 0.1
2017-Sep-29 02:30N 36°08' W 005°23'0 0.1
2017-Sep-29 02:00N 36°08' W 005°23'0 0.1
2017-Sep-29 01:30N 36°08' W 005°23'2 3.4
2017-Sep-29 01:00N 36°06' W 005°23'3 6.4
2017-Sep-29 00:30N 36°05' W 005°19'2 3.7
2017-Sep-29 00:00N 36°05' W 005°17'5 9.6
2017-Sep-28 23:31N 36°06' W 005°11'713.9
2017-Sep-28 23:00N 36°07' W 005°03'25414.3
2017-Sep-28 05:17N 36°45' E 000°09'514.7
2017-Sep-28 04:58N 36°46' E 000°15'714.7
2017-Sep-28 04:29N 36°47' E 000°24'714.6
2017-Sep-28 04:01N 36°48' E 000°32'1014.7
2017-Sep-28 03:19N 36°50' E 000°45'2615.3
2017-Sep-28 01:39N 36°54' E 001°16'515.4
2017-Sep-28 01:18N 36°55' E 001°23'57214.6
2017-Sep-26 10:10N 36°54' E 013°18'214.8
2017-Sep-26 10:00N 36°52' E 013°21'714.6
2017-Sep-26 09:30N 36°50' E 013°30'714.5
2017-Sep-26 09:00N 36°48' E 013°38'714.3
2017-Sep-26 08:30N 36°46' E 013°47'713.9
2017-Sep-26 08:00N 36°45' E 013°55'713.9
2017-Sep-26 07:30N 36°43' E 014°04'713.9
2017-Sep-26 07:00N 36°42' E 014°12'714.3
2017-Sep-26 06:31N 36°41' E 014°21'814.9
2017-Sep-26 06:00N 36°39' E 014°30'815.0
2017-Sep-26 05:30N 36°38' E 014°39'815.0
2017-Sep-26 05:00N 36°36' E 014°49'714.9
2017-Sep-26 04:30N 36°34' E 014°57'814.9
2017-Sep-26 04:00N 36°32' E 015°07'611.5
2017-Sep-26 03:30N 36°35' E 015°13'3014.5
2017-Sep-26 01:25N 37°01' E 015°34'1414.5
2017-Sep-26 00:28N 37°12' E 015°44'714.9
2017-Sep-26 00:00N 37°18' E 015°49'815.2
2017-Sep-25 23:30N 37°24' E 015°53'815.8
2017-Sep-25 23:01N 37°31' E 015°58'815.2
2017-Sep-25 22:30N 37°38' E 016°03'815.0
2017-Sep-25 22:00N 37°43' E 016°09'11914.4
2017-Sep-25 13:45N 39°30' E 017°16'415.2
2017-Sep-25 13:29N 39°34' E 017°15'715.2
2017-Sep-25 13:00N 39°41' E 017°14'714.9
2017-Sep-25 12:31N 39°48' E 017°13'714.3
2017-Sep-25 12:00N 39°56' E 017°12'612.1
2017-Sep-25 11:30N 40°02' E 017°11'510.7
2017-Sep-25 11:00N 40°07' E 017°10'510.7
2017-Sep-25 10:30N 40°12' E 017°09'611.9
2017-Sep-25 10:00N 40°18' E 017°08'510.9
2017-Sep-25 09:30N 40°24' E 017°07'3 6.1
2017-Sep-25 09:00N 40°26' E 017°10'3 5.7
2017-Sep-25 08:30N 40°28' E 017°13'1 2.0
2017-Sep-25 07:59N 40°29' E 017°12'0 0.0
2017-Sep-25 07:29N 40°29' E 017°12'0 0.0
2017-Sep-25 06:59N 40°29' E 017°12'0 0.0
2017-Sep-25 06:29N 40°29' E 017°12'0 0.0
2017-Sep-25 05:59N 40°29' E 017°12'0 0.0
2017-Sep-25 05:29N 40°29' E 017°12'0 0.0
2017-Sep-25 04:59N 40°29' E 017°12'0 0.0
2017-Sep-25 04:29N 40°29' E 017°12'0 0.0
2017-Sep-25 03:59N 40°29' E 017°12'0 0.0
2017-Sep-25 03:29N 40°29' E 017°12'0 0.0
2017-Sep-25 02:59N 40°29' E 017°12'0 0.0
2017-Sep-25 02:29N 40°29' E 017°12'0 0.0
2017-Sep-25 01:59N 40°29' E 017°12'0 0.0
2017-Sep-25 01:29N 40°29' E 017°12'0 0.0
2017-Sep-25 00:59N 40°29' E 017°12'0 0.0
2017-Sep-25 00:29N 40°29' E 017°12'0 0.0
2017-Sep-24 23:59N 40°29' E 017°12'0 0.0
2017-Sep-24 23:29N 40°29' E 017°12'0 0.0
2017-Sep-24 22:59N 40°29' E 017°12'0 0.0
2017-Sep-24 22:29N 40°29' E 017°12'0 0.0
2017-Sep-24 21:59N 40°29' E 017°12'0 0.0
2017-Sep-24 21:29N 40°29' E 017°12'0 0.0
2017-Sep-24 20:59N 40°29' E 017°12'0 0.0
2017-Sep-24 20:29N 40°29' E 017°12'0 0.0
2017-Sep-24 19:59N 40°29' E 017°12'0 0.0
2017-Sep-24 19:29N 40°29' E 017°12'0 0.0
2017-Sep-24 18:59N 40°29' E 017°12'0 0.0
2017-Sep-24 18:29N 40°29' E 017°12'0 0.0
2017-Sep-24 17:59N 40°29' E 017°12'0 0.0
2017-Sep-24 17:29N 40°29' E 017°12'0 0.0
2017-Sep-24 16:59N 40°29' E 017°12'0 0.0
2017-Sep-24 16:29N 40°29' E 017°12'0 0.0
2017-Sep-24 15:59N 40°29' E 017°12'0 0.0
2017-Sep-24 15:29N 40°29' E 017°12'0 0.0
2017-Sep-24 14:59N 40°29' E 017°12'0 0.0
2017-Sep-24 14:29N 40°29' E 017°12'0 0.0
2017-Sep-24 13:59N 40°29' E 017°12'0 0.0
2017-Sep-24 13:29N 40°29' E 017°12'0 0.0
2017-Sep-24 12:59N 40°29' E 017°12'0 0.0
2017-Sep-24 12:29N 40°29' E 017°12'0 0.0
2017-Sep-24 11:59N 40°29' E 017°12'0 0.0
2017-Sep-24 11:29N 40°29' E 017°12'0 0.0
2017-Sep-24 10:59N 40°29' E 017°12'0 0.0
2017-Sep-24 10:29N 40°29' E 017°12'0 0.0
2017-Sep-24 09:59N 40°29' E 017°12'0 0.0
2017-Sep-24 09:29N 40°29' E 017°12'0 0.0
2017-Sep-24 08:59N 40°29' E 017°12'0 0.0
2017-Sep-24 08:29N 40°29' E 017°12'0 0.0
2017-Sep-24 07:59N 40°29' E 017°12'0 0.0
2017-Sep-24 07:29N 40°29' E 017°12'0 0.0
2017-Sep-24 06:59N 40°29' E 017°12'0 0.0
2017-Sep-24 06:29N 40°29' E 017°12'0 0.0
2017-Sep-24 05:59N 40°29' E 017°12'0 0.0
2017-Sep-24 05:29N 40°29' E 017°12'0 0.0
2017-Sep-24 04:59N 40°29' E 017°12'0 0.0
2017-Sep-24 04:29N 40°29' E 017°12'0 0.0
2017-Sep-24 03:59N 40°29' E 017°12'0 0.0
2017-Sep-24 03:29N 40°29' E 017°12'0 0.0
2017-Sep-24 02:59N 40°29' E 017°12'0 0.0
2017-Sep-24 02:29N 40°29' E 017°12'0 0.0
2017-Sep-24 01:59N 40°29' E 017°12'0 0.0
2017-Sep-24 01:29N 40°29' E 017°12'0 0.0
2017-Sep-24 00:59N 40°29' E 017°12'0 0.0
2017-Sep-24 00:26N 40°29' E 017°12'0 0.0
2017-Sep-23 23:59N 40°29' E 017°12'0 0.0
2017-Sep-23 23:29N 40°29' E 017°12'0 0.0
2017-Sep-23 22:59N 40°29' E 017°12'0 0.0
2017-Sep-23 22:29N 40°29' E 017°12'0 0.0
2017-Sep-23 21:59N 40°29' E 017°12'0 0.0
2017-Sep-23 21:29N 40°29' E 017°12'0 0.0
2017-Sep-23 20:59N 40°29' E 017°12'0 0.0
2017-Sep-23 20:29N 40°29' E 017°12'0 0.0
2017-Sep-23 19:59N 40°29' E 017°12'0 0.0
2017-Sep-22 01:59N 40°29' E 017°12'0 0.0
2017-Sep-22 01:29N 40°29' E 017°12'0 0.0
2017-Sep-22 00:59N 40°29' E 017°12'0 0.0
2017-Sep-22 00:29N 40°29' E 017°12'0 0.0
2017-Sep-21 23:59N 40°29' E 017°12'0 0.0
2017-Sep-21 23:29N 40°29' E 017°12'0 0.0
2017-Sep-21 22:59N 40°29' E 017°12'0 0.0
2017-Sep-21 22:29N 40°29' E 017°12'0 0.0
2017-Sep-21 21:59N 40°29' E 017°12'0 0.0
2017-Sep-21 21:29N 40°29' E 017°12'0 0.0
2017-Sep-21 20:59N 40°29' E 017°12'0 0.0
2017-Sep-21 20:29N 40°29' E 017°12'0 0.0
2017-Sep-21 19:59N 40°29' E 017°12'0 0.0
2017-Sep-21 19:29N 40°29' E 017°12'0 0.0
2017-Sep-21 18:59N 40°29' E 017°12'0 0.0
2017-Sep-21 18:29N 40°29' E 017°12'0 0.0
2017-Sep-21 17:59N 40°29' E 017°12'0 0.0
2017-Sep-21 17:29N 40°29' E 017°12'0 0.0
2017-Sep-21 16:59N 40°29' E 017°12'0 0.0
2017-Sep-21 16:29N 40°29' E 017°12'0 0.0
2017-Sep-21 15:59N 40°29' E 017°12'0 0.0
2017-Sep-21 15:29N 40°29' E 017°12'  

Dump ship's entire track history